sensor_id;sensor_type;location;lat;lon;timestamp;P1;durP1;ratioP1;P2;durP2;ratioP2
72095;SDS011;59968;51.084;16.748;2023-07-31T00:00:35;3.20;;;1.80;;
72095;SDS011;59968;51.084;16.748;2023-07-31T00:03:24;3.80;;;2.00;;
72095;SDS011;59968;51.084;16.748;2023-07-31T00:05:53;3.30;;;1.60;;
72095;SDS011;59968;51.084;16.748;2023-07-31T00:08:21;6.20;;;1.80;;
72095;SDS011;59968;51.084;16.748;2023-07-31T00:10:51;3.50;;;1.80;;
72095;SDS011;59968;51.084;16.748;2023-07-31T00:13:21;5.50;;;1.90;;
72095;SDS011;59968;51.084;16.748;2023-07-31T00:15:49;5.20;;;2.30;;
72095;SDS011;59968;51.084;16.748;2023-07-31T00:18:18;4.70;;;2.10;;
72095;SDS011;59968;51.084;16.748;2023-07-31T00:20:47;5.40;;;2.00;;
72095;SDS011;59968;51.084;16.748;2023-07-31T00:23:15;4.30;;;2.00;;
72095;SDS011;59968;51.084;16.748;2023-07-31T00:25:44;5.60;;;1.90;;
72095;SDS011;59968;51.084;16.748;2023-07-31T00:28:12;4.00;;;1.70;;
72095;SDS011;59968;51.084;16.748;2023-07-31T00:30:41;4.60;;;1.90;;
72095;SDS011;59968;51.084;16.748;2023-07-31T00:33:10;7.60;;;1.90;;
72095;SDS011;59968;51.084;16.748;2023-07-31T00:35:39;6.20;;;1.90;;
72095;SDS011;59968;51.084;16.748;2023-07-31T00:38:08;4.50;;;1.90;;
72095;SDS011;59968;51.084;16.748;2023-07-31T00:40:36;5.20;;;1.80;;
72095;SDS011;59968;51.084;16.748;2023-07-31T00:43:12;6.00;;;2.00;;
72095;SDS011;59968;51.084;16.748;2023-07-31T00:45:41;6.40;;;1.80;;
72095;SDS011;59968;51.084;16.748;2023-07-31T00:48:11;5.00;;;2.10;;
72095;SDS011;59968;51.084;16.748;2023-07-31T00:50:40;6.30;;;1.90;;
72095;SDS011;59968;51.084;16.748;2023-07-31T00:53:11;5.90;;;1.70;;
72095;SDS011;59968;51.084;16.748;2023-07-31T00:55:39;5.70;;;1.70;;
72095;SDS011;59968;51.084;16.748;2023-07-31T00:58:08;7.20;;;2.00;;
72095;SDS011;59968;51.084;16.748;2023-07-31T01:00:39;9.50;;;1.90;;
72095;SDS011;59968;51.084;16.748;2023-07-31T01:03:07;5.90;;;1.90;;
72095;SDS011;59968;51.084;16.748;2023-07-31T01:05:46;7.90;;;2.20;;
72095;SDS011;59968;51.084;16.748;2023-07-31T01:08:44;5.60;;;2.20;;
72095;SDS011;59968;51.084;16.748;2023-07-31T01:11:27;5.20;;;1.70;;
72095;SDS011;59968;51.084;16.748;2023-07-31T01:14:01;6.80;;;2.20;;
72095;SDS011;59968;51.084;16.748;2023-07-31T01:16:29;4.10;;;1.80;;
72095;SDS011;59968;51.084;16.748;2023-07-31T01:18:58;6.40;;;1.90;;
72095;SDS011;59968;51.084;16.748;2023-07-31T01:21:36;4.20;;;1.80;;
72095;SDS011;59968;51.084;16.748;2023-07-31T01:24:25;8.10;;;1.80;;
72095;SDS011;59968;51.084;16.748;2023-07-31T01:27:02;5.40;;;2.00;;
72095;SDS011;59968;51.084;16.748;2023-07-31T01:29:38;4.30;;;1.70;;
72095;SDS011;59968;51.084;16.748;2023-07-31T01:32:14;4.30;;;1.80;;
72095;SDS011;59968;51.084;16.748;2023-07-31T01:34:46;4.90;;;2.00;;
72095;SDS011;59968;51.084;16.748;2023-07-31T01:37:16;7.00;;;2.30;;
72095;SDS011;59968;51.084;16.748;2023-07-31T01:39:44;5.20;;;1.90;;
72095;SDS011;59968;51.084;16.748;2023-07-31T01:42:13;5.10;;;1.90;;
72095;SDS011;59968;51.084;16.748;2023-07-31T01:44:43;3.50;;;1.90;;
72095;SDS011;59968;51.084;16.748;2023-07-31T01:47:12;5.90;;;2.40;;
72095;SDS011;59968;51.084;16.748;2023-07-31T01:49:41;6.30;;;1.80;;
72095;SDS011;59968;51.084;16.748;2023-07-31T01:52:09;6.10;;;2.00;;
72095;SDS011;59968;51.084;16.748;2023-07-31T01:54:37;5.80;;;1.90;;
72095;SDS011;59968;51.084;16.748;2023-07-31T01:57:06;5.50;;;2.00;;
72095;SDS011;59968;51.084;16.748;2023-07-31T01:59:35;3.90;;;2.30;;
72095;SDS011;59968;51.084;16.748;2023-07-31T02:02:04;5.20;;;2.50;;
72095;SDS011;59968;51.084;16.748;2023-07-31T02:04:33;4.60;;;1.90;;
72095;SDS011;59968;51.084;16.748;2023-07-31T02:07:06;16.20;;;2.40;;
72095;SDS011;59968;51.084;16.748;2023-07-31T02:09:35;4.40;;;2.20;;
72095;SDS011;59968;51.084;16.748;2023-07-31T02:12:04;3.80;;;2.00;;
72095;SDS011;59968;51.084;16.748;2023-07-31T02:14:32;7.10;;;2.00;;
72095;SDS011;59968;51.084;16.748;2023-07-31T02:17:01;4.00;;;2.00;;
72095;SDS011;59968;51.084;16.748;2023-07-31T02:19:30;6.30;;;2.10;;
72095;SDS011;59968;51.084;16.748;2023-07-31T02:21:58;5.90;;;2.30;;
72095;SDS011;59968;51.084;16.748;2023-07-31T02:24:27;4.20;;;2.00;;
72095;SDS011;59968;51.084;16.748;2023-07-31T02:26:55;5.80;;;2.30;;
72095;SDS011;59968;51.084;16.748;2023-07-31T02:29:24;5.80;;;2.00;;
72095;SDS011;59968;51.084;16.748;2023-07-31T02:31:53;6.70;;;1.90;;
72095;SDS011;59968;51.084;16.748;2023-07-31T02:34:22;5.10;;;2.30;;
72095;SDS011;59968;51.084;16.748;2023-07-31T02:36:51;4.30;;;2.00;;
72095;SDS011;59968;51.084;16.748;2023-07-31T02:39:19;6.80;;;1.90;;
72095;SDS011;59968;51.084;16.748;2023-07-31T02:41:48;5.00;;;2.00;;
72095;SDS011;59968;51.084;16.748;2023-07-31T02:44:17;5.90;;;2.20;;
72095;SDS011;59968;51.084;16.748;2023-07-31T02:46:45;5.40;;;1.90;;
72095;SDS011;59968;51.084;16.748;2023-07-31T02:49:14;6.80;;;2.30;;
72095;SDS011;59968;51.084;16.748;2023-07-31T02:51:42;5.70;;;2.10;;
72095;SDS011;59968;51.084;16.748;2023-07-31T02:54:10;5.70;;;2.10;;
72095;SDS011;59968;51.084;16.748;2023-07-31T02:56:39;6.50;;;2.30;;
72095;SDS011;59968;51.084;16.748;2023-07-31T02:59:08;5.10;;;2.40;;
72095;SDS011;59968;51.084;16.748;2023-07-31T03:01:37;7.10;;;2.10;;
72095;SDS011;59968;51.084;16.748;2023-07-31T03:04:06;8.00;;;2.20;;
72095;SDS011;59968;51.084;16.748;2023-07-31T03:06:35;7.20;;;2.10;;
72095;SDS011;59968;51.084;16.748;2023-07-31T03:09:04;9.30;;;2.30;;
72095;SDS011;59968;51.084;16.748;2023-07-31T03:11:32;4.60;;;2.20;;
72095;SDS011;59968;51.084;16.748;2023-07-31T03:14:01;7.40;;;2.20;;
72095;SDS011;59968;51.084;16.748;2023-07-31T03:16:29;7.20;;;2.50;;
72095;SDS011;59968;51.084;16.748;2023-07-31T03:18:58;8.20;;;2.70;;
72095;SDS011;59968;51.084;16.748;2023-07-31T03:21:26;5.70;;;2.30;;
72095;SDS011;59968;51.084;16.748;2023-07-31T03:23:54;6.10;;;2.80;;
72095;SDS011;59968;51.084;16.748;2023-07-31T03:26:23;8.70;;;2.30;;
72095;SDS011;59968;51.084;16.748;2023-07-31T03:28:52;3.80;;;2.10;;
72095;SDS011;59968;51.084;16.748;2023-07-31T03:31:20;5.60;;;2.20;;
72095;SDS011;59968;51.084;16.748;2023-07-31T03:33:49;7.00;;;2.10;;
72095;SDS011;59968;51.084;16.748;2023-07-31T03:36:18;5.60;;;2.30;;
72095;SDS011;59968;51.084;16.748;2023-07-31T03:38:47;6.20;;;2.10;;
72095;SDS011;59968;51.084;16.748;2023-07-31T03:41:16;5.10;;;2.40;;
72095;SDS011;59968;51.084;16.748;2023-07-31T03:43:49;4.40;;;2.20;;
72095;SDS011;59968;51.084;16.748;2023-07-31T03:46:22;5.20;;;2.50;;
72095;SDS011;59968;51.084;16.748;2023-07-31T03:48:52;7.40;;;2.30;;
72095;SDS011;59968;51.084;16.748;2023-07-31T03:51:20;7.00;;;2.20;;
72095;SDS011;59968;51.084;16.748;2023-07-31T03:53:49;5.40;;;2.30;;
72095;SDS011;59968;51.084;16.748;2023-07-31T03:56:17;5.80;;;2.20;;
72095;SDS011;59968;51.084;16.748;2023-07-31T03:58:46;6.20;;;2.10;;
72095;SDS011;59968;51.084;16.748;2023-07-31T04:01:14;5.20;;;2.40;;
72095;SDS011;59968;51.084;16.748;2023-07-31T04:03:43;7.50;;;2.90;;
72095;SDS011;59968;51.084;16.748;2023-07-31T04:06:11;4.50;;;2.20;;
72095;SDS011;59968;51.084;16.748;2023-07-31T04:08:40;7.40;;;2.60;;
72095;SDS011;59968;51.084;16.748;2023-07-31T04:11:08;7.10;;;2.90;;
72095;SDS011;59968;51.084;16.748;2023-07-31T04:13:37;6.80;;;2.90;;
72095;SDS011;59968;51.084;16.748;2023-07-31T04:16:05;8.70;;;3.00;;
72095;SDS011;59968;51.084;16.748;2023-07-31T04:18:35;6.50;;;3.10;;
72095;SDS011;59968;51.084;16.748;2023-07-31T04:21:03;5.60;;;3.80;;
72095;SDS011;59968;51.084;16.748;2023-07-31T04:23:32;7.70;;;3.80;;
72095;SDS011;59968;51.084;16.748;2023-07-31T04:26:00;7.40;;;4.20;;
72095;SDS011;59968;51.084;16.748;2023-07-31T04:28:29;7.70;;;5.10;;
72095;SDS011;59968;51.084;16.748;2023-07-31T04:31:00;7.80;;;5.80;;
72095;SDS011;59968;51.084;16.748;2023-07-31T04:33:28;9.00;;;5.70;;
72095;SDS011;59968;51.084;16.748;2023-07-31T04:35:58;8.50;;;5.70;;
72095;SDS011;59968;51.084;16.748;2023-07-31T04:38:27;8.30;;;5.70;;
72095;SDS011;59968;51.084;16.748;2023-07-31T04:40:56;8.20;;;5.10;;
72095;SDS011;59968;51.084;16.748;2023-07-31T04:43:24;7.20;;;4.70;;
72095;SDS011;59968;51.084;16.748;2023-07-31T04:45:53;10.30;;;5.40;;
72095;SDS011;59968;51.084;16.748;2023-07-31T04:48:22;8.70;;;4.50;;
72095;SDS011;59968;51.084;16.748;2023-07-31T04:50:50;7.70;;;4.30;;
72095;SDS011;59968;51.084;16.748;2023-07-31T04:53:19;5.80;;;3.90;;
72095;SDS011;59968;51.084;16.748;2023-07-31T04:55:47;6.90;;;3.80;;
72095;SDS011;59968;51.084;16.748;2023-07-31T04:58:16;4.80;;;2.80;;
72095;SDS011;59968;51.084;16.748;2023-07-31T05:00:45;5.40;;;2.90;;
72095;SDS011;59968;51.084;16.748;2023-07-31T05:03:13;7.80;;;3.30;;
72095;SDS011;59968;51.084;16.748;2023-07-31T05:05:42;4.70;;;2.80;;
72095;SDS011;59968;51.084;16.748;2023-07-31T05:08:10;5.50;;;2.60;;
72095;SDS011;59968;51.084;16.748;2023-07-31T05:10:40;6.00;;;2.40;;
72095;SDS011;59968;51.084;16.748;2023-07-31T05:13:08;5.30;;;2.50;;
72095;SDS011;59968;51.084;16.748;2023-07-31T05:15:37;4.50;;;2.60;;
72095;SDS011;59968;51.084;16.748;2023-07-31T05:18:06;4.40;;;2.40;;
72095;SDS011;59968;51.084;16.748;2023-07-31T05:20:34;3.10;;;2.20;;
72095;SDS011;59968;51.084;16.748;2023-07-31T05:23:03;4.10;;;1.90;;
72095;SDS011;59968;51.084;16.748;2023-07-31T05:25:31;5.20;;;1.90;;
72095;SDS011;59968;51.084;16.748;2023-07-31T05:28:00;4.60;;;2.10;;
72095;SDS011;59968;51.084;16.748;2023-07-31T05:30:32;5.30;;;1.90;;
72095;SDS011;59968;51.084;16.748;2023-07-31T05:33:00;4.70;;;2.40;;
72095;SDS011;59968;51.084;16.748;2023-07-31T05:35:29;4.40;;;2.00;;
72095;SDS011;59968;51.084;16.748;2023-07-31T05:37:57;4.80;;;1.80;;
72095;SDS011;59968;51.084;16.748;2023-07-31T05:40:28;5.50;;;2.00;;
72095;SDS011;59968;51.084;16.748;2023-07-31T05:42:56;3.80;;;1.60;;
72095;SDS011;59968;51.084;16.748;2023-07-31T05:45:26;5.40;;;1.70;;
72095;SDS011;59968;51.084;16.748;2023-07-31T05:47:55;3.70;;;1.70;;
72095;SDS011;59968;51.084;16.748;2023-07-31T05:50:27;5.40;;;2.10;;
72095;SDS011;59968;51.084;16.748;2023-07-31T05:52:56;6.10;;;1.70;;
72095;SDS011;59968;51.084;16.748;2023-07-31T05:55:24;5.40;;;1.70;;
72095;SDS011;59968;51.084;16.748;2023-07-31T05:57:56;4.30;;;1.90;;
72095;SDS011;59968;51.084;16.748;2023-07-31T06:00:28;5.20;;;1.70;;
72095;SDS011;59968;51.084;16.748;2023-07-31T06:02:57;3.20;;;1.70;;
72095;SDS011;59968;51.084;16.748;2023-07-31T06:05:25;3.70;;;1.80;;
72095;SDS011;59968;51.084;16.748;2023-07-31T06:07:56;5.60;;;2.20;;
72095;SDS011;59968;51.084;16.748;2023-07-31T06:10:25;3.40;;;2.00;;
72095;SDS011;59968;51.084;16.748;2023-07-31T06:12:55;4.00;;;1.80;;
72095;SDS011;59968;51.084;16.748;2023-07-31T06:15:25;5.50;;;2.00;;
72095;SDS011;59968;51.084;16.748;2023-07-31T06:17:54;3.10;;;1.80;;
72095;SDS011;59968;51.084;16.748;2023-07-31T06:20:23;6.00;;;1.80;;
72095;SDS011;59968;51.084;16.748;2023-07-31T06:22:51;3.80;;;1.70;;
72095;SDS011;59968;51.084;16.748;2023-07-31T06:25:20;5.60;;;1.70;;
72095;SDS011;59968;51.084;16.748;2023-07-31T06:27:48;4.00;;;1.80;;
72095;SDS011;59968;51.084;16.748;2023-07-31T06:30:17;4.00;;;2.30;;
72095;SDS011;59968;51.084;16.748;2023-07-31T06:32:45;3.80;;;1.90;;
72095;SDS011;59968;51.084;16.748;2023-07-31T06:35:14;7.20;;;2.00;;
72095;SDS011;59968;51.084;16.748;2023-07-31T06:37:43;4.50;;;1.90;;
72095;SDS011;59968;51.084;16.748;2023-07-31T06:40:12;3.60;;;2.20;;
72095;SDS011;59968;51.084;16.748;2023-07-31T06:42:41;4.40;;;1.80;;
72095;SDS011;59968;51.084;16.748;2023-07-31T06:45:10;6.20;;;2.00;;
72095;SDS011;59968;51.084;16.748;2023-07-31T06:47:40;4.70;;;1.90;;
72095;SDS011;59968;51.084;16.748;2023-07-31T06:50:09;3.50;;;1.80;;
72095;SDS011;59968;51.084;16.748;2023-07-31T06:52:38;5.40;;;1.60;;
72095;SDS011;59968;51.084;16.748;2023-07-31T06:55:16;4.70;;;1.70;;
72095;SDS011;59968;51.084;16.748;2023-07-31T06:57:50;5.10;;;2.20;;
72095;SDS011;59968;51.084;16.748;2023-07-31T07:00:21;3.50;;;1.70;;
72095;SDS011;59968;51.084;16.748;2023-07-31T07:02:51;4.60;;;1.80;;
72095;SDS011;59968;51.084;16.748;2023-07-31T07:05:20;3.20;;;1.70;;
72095;SDS011;59968;51.084;16.748;2023-07-31T07:07:49;6.20;;;1.90;;
72095;SDS011;59968;51.084;16.748;2023-07-31T07:10:20;3.20;;;1.40;;
72095;SDS011;59968;51.084;16.748;2023-07-31T07:12:49;4.30;;;1.90;;
72095;SDS011;59968;51.084;16.748;2023-07-31T07:15:18;4.80;;;1.70;;
72095;SDS011;59968;51.084;16.748;2023-07-31T07:17:47;3.30;;;1.60;;
72095;SDS011;59968;51.084;16.748;2023-07-31T07:20:15;4.30;;;1.90;;
72095;SDS011;59968;51.084;16.748;2023-07-31T07:22:44;5.40;;;1.70;;
72095;SDS011;59968;51.084;16.748;2023-07-31T07:25:13;3.20;;;1.90;;
72095;SDS011;59968;51.084;16.748;2023-07-31T07:27:41;2.90;;;1.70;;
72095;SDS011;59968;51.084;16.748;2023-07-31T07:30:10;2.40;;;1.70;;
72095;SDS011;59968;51.084;16.748;2023-07-31T07:32:39;3.10;;;1.80;;
72095;SDS011;59968;51.084;16.748;2023-07-31T07:35:08;3.70;;;1.90;;
72095;SDS011;59968;51.084;16.748;2023-07-31T07:37:36;5.10;;;1.90;;
72095;SDS011;59968;51.084;16.748;2023-07-31T07:40:05;5.30;;;2.10;;
72095;SDS011;59968;51.084;16.748;2023-07-31T07:42:34;4.00;;;2.00;;
72095;SDS011;59968;51.084;16.748;2023-07-31T07:45:03;5.50;;;1.90;;
72095;SDS011;59968;51.084;16.748;2023-07-31T07:47:33;2.70;;;1.60;;
72095;SDS011;59968;51.084;16.748;2023-07-31T07:50:02;5.50;;;2.00;;
72095;SDS011;59968;51.084;16.748;2023-07-31T07:52:30;5.10;;;1.70;;
72095;SDS011;59968;51.084;16.748;2023-07-31T07:54:59;3.30;;;1.70;;
72095;SDS011;59968;51.084;16.748;2023-07-31T07:57:28;4.90;;;1.80;;
72095;SDS011;59968;51.084;16.748;2023-07-31T07:59:56;3.30;;;1.90;;
72095;SDS011;59968;51.084;16.748;2023-07-31T08:02:24;3.80;;;1.60;;
72095;SDS011;59968;51.084;16.748;2023-07-31T08:04:53;5.50;;;1.70;;
72095;SDS011;59968;51.084;16.748;2023-07-31T08:07:22;3.20;;;1.60;;
72095;SDS011;59968;51.084;16.748;2023-07-31T08:09:50;4.00;;;2.00;;
72095;SDS011;59968;51.084;16.748;2023-07-31T08:12:18;4.90;;;1.80;;
72095;SDS011;59968;51.084;16.748;2023-07-31T08:14:47;4.80;;;1.80;;
72095;SDS011;59968;51.084;16.748;2023-07-31T08:17:15;6.00;;;1.60;;
72095;SDS011;59968;51.084;16.748;2023-07-31T08:19:44;3.40;;;1.60;;
72095;SDS011;59968;51.084;16.748;2023-07-31T08:22:13;3.30;;;2.00;;
72095;SDS011;59968;51.084;16.748;2023-07-31T08:24:42;4.70;;;1.70;;
72095;SDS011;59968;51.084;16.748;2023-07-31T08:27:11;3.40;;;1.80;;
72095;SDS011;59968;51.084;16.748;2023-07-31T08:29:40;4.70;;;1.90;;
72095;SDS011;59968;51.084;16.748;2023-07-31T08:32:09;3.90;;;1.60;;
72095;SDS011;59968;51.084;16.748;2023-07-31T08:34:37;3.60;;;2.00;;
72095;SDS011;59968;51.084;16.748;2023-07-31T08:37:06;4.80;;;2.40;;
72095;SDS011;59968;51.084;16.748;2023-07-31T08:39:35;2.40;;;1.90;;
72095;SDS011;59968;51.084;16.748;2023-07-31T08:42:08;5.90;;;2.10;;
72095;SDS011;59968;51.084;16.748;2023-07-31T08:44:37;5.00;;;2.10;;
72095;SDS011;59968;51.084;16.748;2023-07-31T08:47:07;3.30;;;2.20;;
72095;SDS011;59968;51.084;16.748;2023-07-31T08:49:36;4.30;;;2.00;;
72095;SDS011;59968;51.084;16.748;2023-07-31T08:52:07;3.70;;;2.50;;
72095;SDS011;59968;51.084;16.748;2023-07-31T08:54:36;5.70;;;2.40;;
72095;SDS011;59968;51.084;16.748;2023-07-31T08:57:05;4.80;;;2.30;;
72095;SDS011;59968;51.084;16.748;2023-07-31T08:59:35;5.60;;;2.20;;
72095;SDS011;59968;51.084;16.748;2023-07-31T09:02:06;5.30;;;2.40;;
72095;SDS011;59968;51.084;16.748;2023-07-31T09:04:37;4.70;;;2.10;;
72095;SDS011;59968;51.084;16.748;2023-07-31T09:07:06;5.10;;;2.40;;
72095;SDS011;59968;51.084;16.748;2023-07-31T09:09:39;3.30;;;2.40;;
72095;SDS011;59968;51.084;16.748;2023-07-31T09:12:08;5.10;;;2.50;;
72095;SDS011;59968;51.084;16.748;2023-07-31T09:14:36;3.10;;;2.10;;
72095;SDS011;59968;51.084;16.748;2023-07-31T09:17:06;5.20;;;2.10;;
72095;SDS011;59968;51.084;16.748;2023-07-31T09:19:35;5.20;;;2.10;;
72095;SDS011;59968;51.084;16.748;2023-07-31T09:22:08;3.80;;;1.60;;
72095;SDS011;59968;51.084;16.748;2023-07-31T09:24:37;3.60;;;1.60;;
72095;SDS011;59968;51.084;16.748;2023-07-31T09:27:07;3.00;;;1.80;;
72095;SDS011;59968;51.084;16.748;2023-07-31T09:29:35;3.60;;;1.90;;
72095;SDS011;59968;51.084;16.748;2023-07-31T09:32:04;3.30;;;1.30;;
72095;SDS011;59968;51.084;16.748;2023-07-31T09:34:43;4.10;;;1.70;;
72095;SDS011;59968;51.084;16.748;2023-07-31T09:37:14;3.20;;;1.80;;
72095;SDS011;59968;51.084;16.748;2023-07-31T09:39:47;2.70;;;1.50;;
72095;SDS011;59968;51.084;16.748;2023-07-31T09:42:24;4.50;;;1.90;;
72095;SDS011;59968;51.084;16.748;2023-07-31T09:44:55;3.20;;;1.40;;
72095;SDS011;59968;51.084;16.748;2023-07-31T09:47:36;4.00;;;1.80;;
72095;SDS011;59968;51.084;16.748;2023-07-31T09:50:07;2.80;;;1.90;;
72095;SDS011;59968;51.084;16.748;2023-07-31T09:52:38;4.40;;;1.90;;
72095;SDS011;59968;51.084;16.748;2023-07-31T09:55:07;2.70;;;1.80;;
72095;SDS011;59968;51.084;16.748;2023-07-31T09:57:43;2.50;;;1.40;;
72095;SDS011;59968;51.084;16.748;2023-07-31T10:00:14;3.50;;;1.50;;
72095;SDS011;59968;51.084;16.748;2023-07-31T10:02:47;4.30;;;1.60;;
72095;SDS011;59968;51.084;16.748;2023-07-31T10:05:17;2.80;;;1.70;;
72095;SDS011;59968;51.084;16.748;2023-07-31T10:08:04;3.40;;;1.20;;
72095;SDS011;59968;51.084;16.748;2023-07-31T10:10:35;3.00;;;1.20;;
72095;SDS011;59968;51.084;16.748;2023-07-31T10:13:06;2.60;;;1.30;;
72095;SDS011;59968;51.084;16.748;2023-07-31T10:15:36;3.90;;;1.60;;
72095;SDS011;59968;51.084;16.748;2023-07-31T10:18:05;2.20;;;1.60;;
72095;SDS011;59968;51.084;16.748;2023-07-31T10:20:35;2.80;;;1.70;;
72095;SDS011;59968;51.084;16.748;2023-07-31T10:23:05;2.40;;;1.50;;
72095;SDS011;59968;51.084;16.748;2023-07-31T10:25:36;3.80;;;1.80;;
72095;SDS011;59968;51.084;16.748;2023-07-31T10:28:07;3.70;;;1.50;;
72095;SDS011;59968;51.084;16.748;2023-07-31T10:30:38;3.00;;;1.40;;
72095;SDS011;59968;51.084;16.748;2023-07-31T10:33:08;2.50;;;1.30;;
72095;SDS011;59968;51.084;16.748;2023-07-31T10:35:37;4.50;;;1.90;;
72095;SDS011;59968;51.084;16.748;2023-07-31T10:38:09;3.10;;;1.70;;
72095;SDS011;59968;51.084;16.748;2023-07-31T10:40:42;2.90;;;1.60;;
72095;SDS011;59968;51.084;16.748;2023-07-31T10:43:10;3.10;;;1.80;;
72095;SDS011;59968;51.084;16.748;2023-07-31T10:45:53;3.90;;;2.00;;
72095;SDS011;59968;51.084;16.748;2023-07-31T10:48:21;2.20;;;1.70;;
72095;SDS011;59968;51.084;16.748;2023-07-31T10:50:52;3.80;;;1.80;;
72095;SDS011;59968;51.084;16.748;2023-07-31T10:55:53;3.30;;;1.90;;
72095;SDS011;59968;51.084;16.748;2023-07-31T10:58:27;4.10;;;2.50;;
72095;SDS011;59968;51.084;16.748;2023-07-31T11:00:56;3.60;;;1.70;;
72095;SDS011;59968;51.084;16.748;2023-07-31T11:03:40;4.70;;;2.10;;
72095;SDS011;59968;51.084;16.748;2023-07-31T11:06:11;3.20;;;2.50;;
72095;SDS011;59968;51.084;16.748;2023-07-31T11:08:46;3.70;;;2.00;;
72095;SDS011;59968;51.084;16.748;2023-07-31T11:11:17;6.00;;;2.10;;
72095;SDS011;59968;51.084;16.748;2023-07-31T11:13:48;3.20;;;2.00;;
72095;SDS011;59968;51.084;16.748;2023-07-31T11:16:22;3.00;;;1.70;;
72095;SDS011;59968;51.084;16.748;2023-07-31T11:18:53;3.50;;;2.30;;
72095;SDS011;59968;51.084;16.748;2023-07-31T11:21:24;3.60;;;2.20;;
72095;SDS011;59968;51.084;16.748;2023-07-31T11:23:56;3.60;;;2.10;;
72095;SDS011;59968;51.084;16.748;2023-07-31T11:26:28;3.50;;;2.00;;
72095;SDS011;59968;51.084;16.748;2023-07-31T11:28:59;3.70;;;2.30;;
72095;SDS011;59968;51.084;16.748;2023-07-31T11:31:27;2.80;;;2.20;;
72095;SDS011;59968;51.084;16.748;2023-07-31T11:34:05;3.20;;;1.90;;
72095;SDS011;59968;51.084;16.748;2023-07-31T11:36:35;6.10;;;2.10;;
72095;SDS011;59968;51.084;16.748;2023-07-31T11:39:05;4.80;;;2.10;;
72095;SDS011;59968;51.084;16.748;2023-07-31T11:41:35;3.80;;;2.30;;
72095;SDS011;59968;51.084;16.748;2023-07-31T11:44:03;4.10;;;2.20;;
72095;SDS011;59968;51.084;16.748;2023-07-31T11:46:52;4.20;;;2.10;;
72095;SDS011;59968;51.084;16.748;2023-07-31T11:49:20;7.10;;;2.30;;
72095;SDS011;59968;51.084;16.748;2023-07-31T11:51:49;3.20;;;1.90;;
72095;SDS011;59968;51.084;16.748;2023-07-31T11:54:18;2.70;;;1.90;;
72095;SDS011;59968;51.084;16.748;2023-07-31T11:56:46;3.40;;;2.20;;
72095;SDS011;59968;51.084;16.748;2023-07-31T11:59:15;3.80;;;2.30;;
72095;SDS011;59968;51.084;16.748;2023-07-31T12:01:44;4.30;;;2.50;;
72095;SDS011;59968;51.084;16.748;2023-07-31T12:04:14;3.50;;;2.10;;
72095;SDS011;59968;51.084;16.748;2023-07-31T12:06:43;3.20;;;2.20;;
72095;SDS011;59968;51.084;16.748;2023-07-31T12:09:16;3.60;;;2.50;;
72095;SDS011;59968;51.084;16.748;2023-07-31T12:11:46;3.20;;;2.30;;
72095;SDS011;59968;51.084;16.748;2023-07-31T12:14:33;5.10;;;2.10;;
72095;SDS011;59968;51.084;16.748;2023-07-31T12:17:04;4.60;;;2.40;;
72095;SDS011;59968;51.084;16.748;2023-07-31T12:19:35;3.60;;;2.70;;
72095;SDS011;59968;51.084;16.748;2023-07-31T12:22:12;5.40;;;2.60;;
72095;SDS011;59968;51.084;16.748;2023-07-31T12:24:43;5.70;;;3.00;;
72095;SDS011;59968;51.084;16.748;2023-07-31T12:27:13;3.40;;;2.30;;
72095;SDS011;59968;51.084;16.748;2023-07-31T12:29:43;4.70;;;2.30;;
72095;SDS011;59968;51.084;16.748;2023-07-31T12:32:22;5.30;;;2.90;;
72095;SDS011;59968;51.084;16.748;2023-07-31T12:34:53;4.30;;;2.40;;
72095;SDS011;59968;51.084;16.748;2023-07-31T12:37:22;6.50;;;2.70;;
72095;SDS011;59968;51.084;16.748;2023-07-31T12:39:50;3.20;;;2.10;;
72095;SDS011;59968;51.084;16.748;2023-07-31T12:42:19;6.40;;;2.40;;
72095;SDS011;59968;51.084;16.748;2023-07-31T12:44:47;4.30;;;2.30;;
72095;SDS011;59968;51.084;16.748;2023-07-31T12:47:16;6.80;;;2.60;;
72095;SDS011;59968;51.084;16.748;2023-07-31T12:49:45;4.60;;;2.60;;
72095;SDS011;59968;51.084;16.748;2023-07-31T12:52:13;3.70;;;2.40;;
72095;SDS011;59968;51.084;16.748;2023-07-31T12:54:42;3.30;;;2.50;;
72095;SDS011;59968;51.084;16.748;2023-07-31T12:57:10;3.40;;;2.40;;
72095;SDS011;59968;51.084;16.748;2023-07-31T12:59:39;4.20;;;2.40;;
72095;SDS011;59968;51.084;16.748;2023-07-31T13:02:08;3.30;;;2.40;;
72095;SDS011;59968;51.084;16.748;2023-07-31T13:04:38;3.80;;;2.60;;
72095;SDS011;59968;51.084;16.748;2023-07-31T13:07:07;4.30;;;2.70;;
72095;SDS011;59968;51.084;16.748;2023-07-31T13:09:35;3.10;;;2.30;;
72095;SDS011;59968;51.084;16.748;2023-07-31T13:12:04;4.70;;;2.30;;
72095;SDS011;59968;51.084;16.748;2023-07-31T13:14:34;4.70;;;2.80;;
72095;SDS011;59968;51.084;16.748;2023-07-31T13:17:03;5.60;;;2.50;;
72095;SDS011;59968;51.084;16.748;2023-07-31T13:19:31;3.10;;;2.30;;
72095;SDS011;59968;51.084;16.748;2023-07-31T13:22:00;4.00;;;2.60;;
72095;SDS011;59968;51.084;16.748;2023-07-31T13:24:29;4.60;;;2.60;;
72095;SDS011;59968;51.084;16.748;2023-07-31T13:26:57;5.80;;;2.90;;
72095;SDS011;59968;51.084;16.748;2023-07-31T13:29:27;3.80;;;2.40;;
72095;SDS011;59968;51.084;16.748;2023-07-31T13:31:56;4.10;;;2.30;;
72095;SDS011;59968;51.084;16.748;2023-07-31T13:34:25;3.80;;;2.50;;
72095;SDS011;59968;51.084;16.748;2023-07-31T13:36:54;5.60;;;2.90;;
72095;SDS011;59968;51.084;16.748;2023-07-31T13:39:24;3.20;;;2.60;;
72095;SDS011;59968;51.084;16.748;2023-07-31T13:41:53;4.90;;;3.00;;
72095;SDS011;59968;51.084;16.748;2023-07-31T13:44:22;3.90;;;2.30;;
72095;SDS011;59968;51.084;16.748;2023-07-31T13:46:51;4.50;;;2.60;;
72095;SDS011;59968;51.084;16.748;2023-07-31T13:49:19;4.60;;;2.40;;
72095;SDS011;59968;51.084;16.748;2023-07-31T13:51:48;3.60;;;2.50;;
72095;SDS011;59968;51.084;16.748;2023-07-31T13:54:16;3.40;;;2.50;;
72095;SDS011;59968;51.084;16.748;2023-07-31T13:56:45;3.70;;;2.40;;
72095;SDS011;59968;51.084;16.748;2023-07-31T13:59:13;3.30;;;2.40;;
72095;SDS011;59968;51.084;16.748;2023-07-31T14:01:44;4.10;;;2.60;;
72095;SDS011;59968;51.084;16.748;2023-07-31T14:04:13;6.00;;;2.60;;
72095;SDS011;59968;51.084;16.748;2023-07-31T14:06:43;6.10;;;2.70;;
72095;SDS011;59968;51.084;16.748;2023-07-31T14:09:13;4.60;;;2.20;;
72095;SDS011;59968;51.084;16.748;2023-07-31T14:11:42;4.60;;;2.40;;
72095;SDS011;59968;51.084;16.748;2023-07-31T14:14:11;5.00;;;2.40;;
72095;SDS011;59968;51.084;16.748;2023-07-31T14:16:42;4.70;;;2.70;;
72095;SDS011;59968;51.084;16.748;2023-07-31T14:19:11;3.30;;;2.40;;
72095;SDS011;59968;51.084;16.748;2023-07-31T14:21:40;3.90;;;2.30;;
72095;SDS011;59968;51.084;16.748;2023-07-31T14:24:08;5.50;;;2.50;;
72095;SDS011;59968;51.084;16.748;2023-07-31T14:26:36;4.80;;;2.70;;
72095;SDS011;59968;51.084;16.748;2023-07-31T14:29:05;4.50;;;2.60;;
72095;SDS011;59968;51.084;16.748;2023-07-31T14:31:34;4.50;;;2.20;;
72095;SDS011;59968;51.084;16.748;2023-07-31T14:34:03;4.50;;;2.10;;
72095;SDS011;59968;51.084;16.748;2023-07-31T14:36:32;3.10;;;2.20;;
72095;SDS011;59968;51.084;16.748;2023-07-31T14:39:00;5.30;;;2.50;;
72095;SDS011;59968;51.084;16.748;2023-07-31T14:41:29;4.20;;;2.10;;
72095;SDS011;59968;51.084;16.748;2023-07-31T14:43:57;3.20;;;2.20;;
72095;SDS011;59968;51.084;16.748;2023-07-31T14:46:26;2.90;;;2.00;;
72095;SDS011;59968;51.084;16.748;2023-07-31T14:48:54;3.30;;;2.10;;
72095;SDS011;59968;51.084;16.748;2023-07-31T14:51:22;5.10;;;2.20;;